sensor_id;sensor_type;location;lat;lon;timestamp;P1;durP1;ratioP1;P2;durP2;ratioP2
58978;SDS011;44763;50.464;30.612;2022-08-20T00:00:23;2.35;;;1.92;;
58978;SDS011;44763;50.464;30.612;2022-08-20T00:02:53;2.85;;;1.45;;
58978;SDS011;44763;50.464;30.612;2022-08-20T00:05:27;1.20;;;1.20;;
58978;SDS011;44763;50.464;30.612;2022-08-20T00:08:03;2.52;;;2.20;;
58978;SDS011;44763;50.464;30.612;2022-08-20T00:10:31;2.15;;;1.95;;
58978;SDS011;44763;50.464;30.612;2022-08-20T00:13:00;1.55;;;1.45;;
58978;SDS011;44763;50.464;30.612;2022-08-20T00:15:29;1.25;;;1.17;;
58978;SDS011;44763;50.464;30.612;2022-08-20T00:17:58;2.52;;;1.25;;
58978;SDS011;44763;50.464;30.612;2022-08-20T00:20:27;1.85;;;1.70;;
58978;SDS011;44763;50.464;30.612;2022-08-20T00:22:56;1.62;;;1.52;;
58978;SDS011;44763;50.464;30.612;2022-08-20T00:25:23;2.25;;;1.50;;
58978;SDS011;44763;50.464;30.612;2022-08-20T00:27:51;1.98;;;1.57;;
58978;SDS011;44763;50.464;30.612;2022-08-20T00:32:47;1.90;;;1.80;;
58978;SDS011;44763;50.464;30.612;2022-08-20T00:35:21;1.60;;;1.32;;
58978;SDS011;44763;50.464;30.612;2022-08-20T00:37:51;1.95;;;1.85;;
58978;SDS011;44763;50.464;30.612;2022-08-20T00:40:20;1.70;;;1.60;;
58978;SDS011;44763;50.464;30.612;2022-08-20T00:42:51;1.75;;;1.65;;
58978;SDS011;44763;50.464;30.612;2022-08-20T00:45:22;2.50;;;1.65;;
58978;SDS011;44763;50.464;30.612;2022-08-20T00:47:52;2.25;;;1.60;;
58978;SDS011;44763;50.464;30.612;2022-08-20T00:50:21;1.12;;;1.10;;
58978;SDS011;44763;50.464;30.612;2022-08-20T00:52:58;2.22;;;1.50;;
58978;SDS011;44763;50.464;30.612;2022-08-20T00:55:27;2.70;;;1.70;;
58978;SDS011;44763;50.464;30.612;2022-08-20T00:57:55;2.00;;;1.80;;
58978;SDS011;44763;50.464;30.612;2022-08-20T01:00:32;1.72;;;1.62;;
58978;SDS011;44763;50.464;30.612;2022-08-20T01:02:59;2.90;;;1.60;;
58978;SDS011;44763;50.464;30.612;2022-08-20T01:05:26;2.15;;;1.15;;
58978;SDS011;44763;50.464;30.612;2022-08-20T01:07:55;2.47;;;2.27;;
58978;SDS011;44763;50.464;30.612;2022-08-20T01:10:24;1.65;;;1.55;;
58978;SDS011;44763;50.464;30.612;2022-08-20T01:12:54;2.92;;;1.35;;
58978;SDS011;44763;50.464;30.612;2022-08-20T01:15:26;1.40;;;0.93;;
58978;SDS011;44763;50.464;30.612;2022-08-20T01:17:55;1.72;;;1.67;;
58978;SDS011;44763;50.464;30.612;2022-08-20T01:20:25;2.62;;;1.95;;
58978;SDS011;44763;50.464;30.612;2022-08-20T01:26:30;1.85;;;1.72;;
58978;SDS011;44763;50.464;30.612;2022-08-20T01:29:07;11.30;;;1.85;;
58978;SDS011;44763;50.464;30.612;2022-08-20T01:31:45;2.02;;;1.87;;
58978;SDS011;44763;50.464;30.612;2022-08-20T01:36:42;7.40;;;1.87;;
58978;SDS011;44763;50.464;30.612;2022-08-20T01:39:15;2.40;;;2.17;;
58978;SDS011;44763;50.464;30.612;2022-08-20T01:44:21;1.70;;;1.57;;
58978;SDS011;44763;50.464;30.612;2022-08-20T01:46:49;1.82;;;1.72;;
58978;SDS011;44763;50.464;30.612;2022-08-20T01:49:24;3.35;;;2.10;;
58978;SDS011;44763;50.464;30.612;2022-08-20T01:51:57;1.60;;;1.50;;
58978;SDS011;44763;50.464;30.612;2022-08-20T01:54:26;4.25;;;2.58;;
58978;SDS011;44763;50.464;30.612;2022-08-20T01:56:58;2.00;;;1.90;;
58978;SDS011;44763;50.464;30.612;2022-08-20T01:59:33;3.55;;;1.87;;
58978;SDS011;44763;50.464;30.612;2022-08-20T02:04:27;2.10;;;2.00;;
58978;SDS011;44763;50.464;30.612;2022-08-20T02:06:56;3.35;;;2.17;;
58978;SDS011;44763;50.464;30.612;2022-08-20T02:09:25;1.82;;;1.72;;
58978;SDS011;44763;50.464;30.612;2022-08-20T02:11:54;4.10;;;2.20;;
58978;SDS011;44763;50.464;30.612;2022-08-20T02:14:22;2.40;;;2.00;;
58978;SDS011;44763;50.464;30.612;2022-08-20T02:16:49;2.15;;;2.00;;
58978;SDS011;44763;50.464;30.612;2022-08-20T02:19:19;1.60;;;1.50;;
58978;SDS011;44763;50.464;30.612;2022-08-20T02:21:50;1.67;;;1.57;;
58978;SDS011;44763;50.464;30.612;2022-08-20T02:24:21;2.75;;;2.02;;
58978;SDS011;44763;50.464;30.612;2022-08-20T02:26:47;2.45;;;2.35;;
58978;SDS011;44763;50.464;30.612;2022-08-20T02:29:16;4.37;;;1.90;;
58978;SDS011;44763;50.464;30.612;2022-08-20T02:31:43;1.85;;;1.80;;
58978;SDS011;44763;50.464;30.612;2022-08-20T02:34:12;3.77;;;2.77;;
58978;SDS011;44763;50.464;30.612;2022-08-20T02:36:39;2.08;;;1.98;;
58978;SDS011;44763;50.464;30.612;2022-08-20T02:39:09;2.08;;;1.40;;
58978;SDS011;44763;50.464;30.612;2022-08-20T02:41:37;2.00;;;1.90;;
58978;SDS011;44763;50.464;30.612;2022-08-20T02:44:04;3.08;;;2.87;;
58978;SDS011;44763;50.464;30.612;2022-08-20T02:46:32;1.90;;;1.80;;
58978;SDS011;44763;50.464;30.612;2022-08-20T02:48:59;2.05;;;1.95;;
58978;SDS011;44763;50.464;30.612;2022-08-20T02:51:26;5.40;;;2.10;;
58978;SDS011;44763;50.464;30.612;2022-08-20T02:53:52;3.20;;;2.00;;
58978;SDS011;44763;50.464;30.612;2022-08-20T02:56:18;1.98;;;1.67;;
58978;SDS011;44763;50.464;30.612;2022-08-20T02:58:45;2.72;;;2.02;;
58978;SDS011;44763;50.464;30.612;2022-08-20T03:01:14;2.98;;;2.62;;
58978;SDS011;44763;50.464;30.612;2022-08-20T03:03:43;5.45;;;2.02;;
58978;SDS011;44763;50.464;30.612;2022-08-20T03:06:10;2.83;;;2.35;;
58978;SDS011;44763;50.464;30.612;2022-08-20T03:08:39;1.77;;;1.65;;
58978;SDS011;44763;50.464;30.612;2022-08-20T03:11:07;2.35;;;2.25;;
58978;SDS011;44763;50.464;30.612;2022-08-20T03:13:33;2.45;;;2.27;;
58978;SDS011;44763;50.464;30.612;2022-08-20T03:16:02;2.12;;;2.02;;
58978;SDS011;44763;50.464;30.612;2022-08-20T03:18:31;2.70;;;2.60;;
58978;SDS011;44763;50.464;30.612;2022-08-20T03:21:02;2.72;;;2.52;;
58978;SDS011;44763;50.464;30.612;2022-08-20T03:23:30;2.67;;;2.58;;
58978;SDS011;44763;50.464;30.612;2022-08-20T03:25:57;3.58;;;3.27;;
58978;SDS011;44763;50.464;30.612;2022-08-20T03:28:24;3.27;;;2.72;;
58978;SDS011;44763;50.464;30.612;2022-08-20T03:31:33;3.10;;;2.77;;
58978;SDS011;44763;50.464;30.612;2022-08-20T03:36:26;2.75;;;2.55;;
58978;SDS011;44763;50.464;30.612;2022-08-20T03:38:54;2.62;;;2.52;;
58978;SDS011;44763;50.464;30.612;2022-08-20T03:41:22;3.37;;;3.17;;
58978;SDS011;44763;50.464;30.612;2022-08-20T03:43:48;3.40;;;3.10;;
58978;SDS011;44763;50.464;30.612;2022-08-20T03:46:15;2.90;;;2.80;;
58978;SDS011;44763;50.464;30.612;2022-08-20T03:48:41;2.92;;;2.30;;
58978;SDS011;44763;50.464;30.612;2022-08-20T03:51:08;2.02;;;1.92;;
58978;SDS011;44763;50.464;30.612;2022-08-20T03:53:35;2.65;;;2.55;;
58978;SDS011;44763;50.464;30.612;2022-08-20T03:58:30;2.65;;;2.55;;
58978;SDS011;44763;50.464;30.612;2022-08-20T04:00:58;3.10;;;2.58;;
58978;SDS011;44763;50.464;30.612;2022-08-20T04:03:25;3.12;;;2.92;;
58978;SDS011;44763;50.464;30.612;2022-08-20T04:05:52;2.75;;;2.62;;
58978;SDS011;44763;50.464;30.612;2022-08-20T04:08:19;3.40;;;2.58;;
58978;SDS011;44763;50.464;30.612;2022-08-20T04:10:52;2.15;;;2.05;;
58978;SDS011;44763;50.464;30.612;2022-08-20T04:13:20;2.70;;;2.60;;
58978;SDS011;44763;50.464;30.612;2022-08-20T04:15:47;2.75;;;2.55;;
58978;SDS011;44763;50.464;30.612;2022-08-20T04:18:15;3.20;;;3.00;;
58978;SDS011;44763;50.464;30.612;2022-08-20T04:20:45;3.20;;;3.00;;
58978;SDS011;44763;50.464;30.612;2022-08-20T04:23:12;3.72;;;3.35;;
58978;SDS011;44763;50.464;30.612;2022-08-20T04:25:39;2.98;;;2.77;;
58978;SDS011;44763;50.464;30.612;2022-08-20T04:28:14;6.45;;;3.37;;
58978;SDS011;44763;50.464;30.612;2022-08-20T04:30:51;4.50;;;4.12;;
58978;SDS011;44763;50.464;30.612;2022-08-20T04:33:22;3.67;;;3.47;;
58978;SDS011;44763;50.464;30.612;2022-08-20T04:35:51;3.85;;;3.50;;
58978;SDS011;44763;50.464;30.612;2022-08-20T04:38:19;4.20;;;3.80;;
58978;SDS011;44763;50.464;30.612;2022-08-20T04:40:47;3.75;;;3.55;;
58978;SDS011;44763;50.464;30.612;2022-08-20T04:43:27;3.98;;;3.67;;
58978;SDS011;44763;50.464;30.612;2022-08-20T04:46:01;4.50;;;4.20;;
58978;SDS011;44763;50.464;30.612;2022-08-20T04:48:31;5.58;;;4.92;;
58978;SDS011;44763;50.464;30.612;2022-08-20T04:50:58;4.65;;;4.35;;
58978;SDS011;44763;50.464;30.612;2022-08-20T04:53:26;4.50;;;4.20;;
58978;SDS011;44763;50.464;30.612;2022-08-20T04:55:54;4.90;;;4.40;;
58978;SDS011;44763;50.464;30.612;2022-08-20T04:58:25;4.90;;;4.28;;
58978;SDS011;44763;50.464;30.612;2022-08-20T05:00:59;4.58;;;4.33;;
58978;SDS011;44763;50.464;30.612;2022-08-20T05:03:32;3.90;;;3.67;;
58978;SDS011;44763;50.464;30.612;2022-08-20T05:06:02;3.37;;;3.17;;
58978;SDS011;44763;50.464;30.612;2022-08-20T05:08:31;3.95;;;3.45;;
58978;SDS011;44763;50.464;30.612;2022-08-20T05:11:00;3.10;;;2.98;;
58978;SDS011;44763;50.464;30.612;2022-08-20T05:13:27;5.00;;;3.42;;
58978;SDS011;44763;50.464;30.612;2022-08-20T05:15:53;3.00;;;2.70;;
58978;SDS011;44763;50.464;30.612;2022-08-20T05:18:21;3.58;;;3.27;;
58978;SDS011;44763;50.464;30.612;2022-08-20T05:20:50;3.58;;;2.90;;
58978;SDS011;44763;50.464;30.612;2022-08-20T05:23:18;3.50;;;3.20;;
58978;SDS011;44763;50.464;30.612;2022-08-20T05:25:46;2.60;;;2.50;;
58978;SDS011;44763;50.464;30.612;2022-08-20T05:28:18;2.40;;;2.20;;
58978;SDS011;44763;50.464;30.612;2022-08-20T05:30:49;2.55;;;2.35;;
58978;SDS011;44763;50.464;30.612;2022-08-20T05:33:18;3.47;;;2.27;;
58978;SDS011;44763;50.464;30.612;2022-08-20T05:35:47;3.15;;;2.87;;
58978;SDS011;44763;50.464;30.612;2022-08-20T05:38:17;1.72;;;1.62;;
58978;SDS011;44763;50.464;30.612;2022-08-20T05:40:48;1.52;;;1.40;;
58978;SDS011;44763;50.464;30.612;2022-08-20T05:43:15;2.22;;;2.12;;
58978;SDS011;44763;50.464;30.612;2022-08-20T05:45:42;2.05;;;1.95;;
58978;SDS011;44763;50.464;30.612;2022-08-20T05:48:15;5.17;;;2.00;;
58978;SDS011;44763;50.464;30.612;2022-08-20T05:50:44;2.00;;;1.70;;
58978;SDS011;44763;50.464;30.612;2022-08-20T05:53:13;1.10;;;1.10;;
58978;SDS011;44763;50.464;30.612;2022-08-20T05:55:42;2.30;;;1.85;;
58978;SDS011;44763;50.464;30.612;2022-08-20T05:58:14;1.80;;;1.70;;
58978;SDS011;44763;50.464;30.612;2022-08-20T06:00:49;1.70;;;1.60;;
58978;SDS011;44763;50.464;30.612;2022-08-20T06:03:18;1.50;;;1.40;;
58978;SDS011;44763;50.464;30.612;2022-08-20T06:06:03;2.27;;;1.32;;
58978;SDS011;44763;50.464;30.612;2022-08-20T06:08:31;2.42;;;1.27;;
58978;SDS011;44763;50.464;30.612;2022-08-20T06:10:57;1.12;;;0.90;;
58978;SDS011;44763;50.464;30.612;2022-08-20T06:13:25;3.55;;;0.93;;
58978;SDS011;44763;50.464;30.612;2022-08-20T06:15:54;1.37;;;0.85;;
58978;SDS011;44763;50.464;30.612;2022-08-20T06:18:22;4.67;;;1.00;;
58978;SDS011;44763;50.464;30.612;2022-08-20T06:20:49;1.02;;;0.80;;
58978;SDS011;44763;50.464;30.612;2022-08-20T06:23:16;0.80;;;0.53;;
58978;SDS011;44763;50.464;30.612;2022-08-20T06:25:44;1.02;;;0.70;;
58978;SDS011;44763;50.464;30.612;2022-08-20T06:28:11;0.13;;;0.13;;
58978;SDS011;44763;50.464;30.612;2022-08-20T06:30:38;0.68;;;0.42;;
58978;SDS011;44763;50.464;30.612;2022-08-20T06:33:04;0.30;;;0.20;;
58978;SDS011;44763;50.464;30.612;2022-08-20T06:35:30;2.25;;;0.20;;
58978;SDS011;44763;50.464;30.612;2022-08-20T06:37:58;0.50;;;0.30;;
58978;SDS011;44763;50.464;30.612;2022-08-20T06:40:26;0.40;;;0.30;;
58978;SDS011;44763;50.464;30.612;2022-08-20T06:42:54;0.72;;;0.70;;
58978;SDS011;44763;50.464;30.612;2022-08-20T06:45:27;0.82;;;0.33;;
58978;SDS011;44763;50.464;30.612;2022-08-20T06:47:53;1.42;;;0.30;;
58978;SDS011;44763;50.464;30.612;2022-08-20T06:50:24;0.30;;;0.23;;
58978;SDS011;44763;50.464;30.612;2022-08-20T06:52:54;4.53;;;0.40;;
58978;SDS011;44763;50.464;30.612;2022-08-20T06:55:21;0.30;;;0.30;;
58978;SDS011;44763;50.464;30.612;2022-08-20T06:57:59;0.42;;;0.40;;
58978;SDS011;44763;50.464;30.612;2022-08-20T07:00:30;0.40;;;0.40;;
58978;SDS011;44763;50.464;30.612;2022-08-20T07:02:58;0.60;;;0.40;;
58978;SDS011;44763;50.464;30.612;2022-08-20T07:05:26;1.77;;;0.50;;
58978;SDS011;44763;50.464;30.612;2022-08-20T07:07:54;1.57;;;0.40;;
58978;SDS011;44763;50.464;30.612;2022-08-20T07:10:22;0.60;;;0.60;;
58978;SDS011;44763;50.464;30.612;2022-08-20T07:12:50;1.57;;;1.07;;
58978;SDS011;44763;50.464;30.612;2022-08-20T07:15:17;0.82;;;0.75;;
58978;SDS011;44763;50.464;30.612;2022-08-20T07:17:51;1.27;;;0.85;;
58978;SDS011;44763;50.464;30.612;2022-08-20T07:20:18;0.82;;;0.50;;
58978;SDS011;44763;50.464;30.612;2022-08-20T07:22:46;0.40;;;0.30;;
58978;SDS011;44763;50.464;30.612;2022-08-20T07:25:14;4.22;;;0.70;;
58978;SDS011;44763;50.464;30.612;2022-08-20T07:27:44;0.53;;;0.50;;
58978;SDS011;44763;50.464;30.612;2022-08-20T07:30:13;0.60;;;0.60;;
58978;SDS011;44763;50.464;30.612;2022-08-20T07:33:02;0.53;;;0.40;;
58978;SDS011;44763;50.464;30.612;2022-08-20T07:35:28;0.57;;;0.35;;
58978;SDS011;44763;50.464;30.612;2022-08-20T07:37:54;1.35;;;0.50;;
58978;SDS011;44763;50.464;30.612;2022-08-20T07:40:26;0.93;;;0.40;;
58978;SDS011;44763;50.464;30.612;2022-08-20T07:42:53;0.30;;;0.30;;
58978;SDS011;44763;50.464;30.612;2022-08-20T07:45:21;0.70;;;0.70;;
58978;SDS011;44763;50.464;30.612;2022-08-20T07:47:48;0.65;;;0.65;;
58978;SDS011;44763;50.464;30.612;2022-08-20T07:50:17;0.75;;;0.72;;
58978;SDS011;44763;50.464;30.612;2022-08-20T07:52:48;1.32;;;0.40;;
58978;SDS011;44763;50.464;30.612;2022-08-20T07:55:18;0.50;;;0.50;;
58978;SDS011;44763;50.464;30.612;2022-08-20T07:57:47;0.20;;;0.20;;
58978;SDS011;44763;50.464;30.612;2022-08-20T08:00:15;1.85;;;0.33;;
58978;SDS011;44763;50.464;30.612;2022-08-20T08:02:44;2.15;;;0.30;;
58978;SDS011;44763;50.464;30.612;2022-08-20T08:05:11;0.40;;;0.30;;
58978;SDS011;44763;50.464;30.612;2022-08-20T08:07:38;1.02;;;0.20;;
58978;SDS011;44763;50.464;30.612;2022-08-20T08:10:08;0.30;;;0.30;;
58978;SDS011;44763;50.464;30.612;2022-08-20T08:12:40;0.50;;;0.30;;
58978;SDS011;44763;50.464;30.612;2022-08-20T08:15:11;0.30;;;0.30;;
58978;SDS011;44763;50.464;30.612;2022-08-20T08:17:46;0.47;;;0.23;;
58978;SDS011;44763;50.464;30.612;2022-08-20T08:20:15;1.22;;;0.25;;
58978;SDS011;44763;50.464;30.612;2022-08-20T08:22:44;1.57;;;0.23;;
58978;SDS011;44763;50.464;30.612;2022-08-20T08:25:10;0.40;;;0.40;;
58978;SDS011;44763;50.464;30.612;2022-08-20T08:27:40;0.40;;;0.28;;
58978;SDS011;44763;50.464;30.612;2022-08-20T08:30:07;0.28;;;0.20;;
58978;SDS011;44763;50.464;30.612;2022-08-20T08:32:36;0.20;;;0.13;;
58978;SDS011;44763;50.464;30.612;2022-08-20T08:35:05;0.40;;;0.40;;
58978;SDS011;44763;50.464;30.612;2022-08-20T08:37:34;0.45;;;0.30;;
58978;SDS011;44763;50.464;30.612;2022-08-20T08:40:03;0.53;;;0.25;;
58978;SDS011;44763;50.464;30.612;2022-08-20T08:42:41;0.45;;;0.30;;
58978;SDS011;44763;50.464;30.612;2022-08-20T08:45:15;0.65;;;0.33;;
58978;SDS011;44763;50.464;30.612;2022-08-20T08:47:43;0.95;;;0.30;;
58978;SDS011;44763;50.464;30.612;2022-08-20T08:50:14;0.30;;;0.20;;
58978;SDS011;44763;50.464;30.612;2022-08-20T08:52:48;0.40;;;0.20;;
58978;SDS011;44763;50.464;30.612;2022-08-20T08:55:18;0.40;;;0.40;;
58978;SDS011;44763;50.464;30.612;2022-08-20T08:57:47;0.60;;;0.30;;
58978;SDS011;44763;50.464;30.612;2022-08-20T09:00:15;0.40;;;0.30;;
58978;SDS011;44763;50.464;30.612;2022-08-20T09:02:57;1.45;;;0.35;;
58978;SDS011;44763;50.464;30.612;2022-08-20T09:05:40;1.65;;;0.30;;
58978;SDS011;44763;50.464;30.612;2022-08-20T09:08:17;0.30;;;0.30;;
58978;SDS011;44763;50.464;30.612;2022-08-20T09:10:49;0.50;;;0.20;;
58978;SDS011;44763;50.464;30.612;2022-08-20T09:13:15;0.45;;;0.33;;
58978;SDS011;44763;50.464;30.612;2022-08-20T09:15:41;2.85;;;0.33;;
58978;SDS011;44763;50.464;30.612;2022-08-20T09:18:08;0.53;;;0.33;;
58978;SDS011;44763;50.464;30.612;2022-08-20T09:20:34;0.20;;;0.20;;
58978;SDS011;44763;50.464;30.612;2022-08-20T09:23:03;0.30;;;0.30;;
58978;SDS011;44763;50.464;30.612;2022-08-20T09:25:31;0.30;;;0.30;;
58978;SDS011;44763;50.464;30.612;2022-08-20T09:27:58;0.40;;;0.20;;
58978;SDS011;44763;50.464;30.612;2022-08-20T09:30:24;0.50;;;0.25;;
58978;SDS011;44763;50.464;30.612;2022-08-20T09:32:50;0.50;;;0.40;;
58978;SDS011;44763;50.464;30.612;2022-08-20T09:35:17;1.77;;;0.20;;
58978;SDS011;44763;50.464;30.612;2022-08-20T09:37:43;0.47;;;0.30;;
58978;SDS011;44763;50.464;30.612;2022-08-20T09:40:11;0.42;;;0.20;;
58978;SDS011;44763;50.464;30.612;2022-08-20T09:42:38;0.30;;;0.30;;
58978;SDS011;44763;50.464;30.612;2022-08-20T09:45:04;0.80;;;0.40;;
58978;SDS011;44763;50.464;30.612;2022-08-20T09:47:34;0.20;;;0.20;;
58978;SDS011;44763;50.464;30.612;2022-08-20T09:50:00;0.20;;;0.20;;
58978;SDS011;44763;50.464;30.612;2022-08-20T09:52:33;0.57;;;0.40;;
58978;SDS011;44763;50.464;30.612;2022-08-20T09:55:07;0.90;;;0.30;;
58978;SDS011;44763;50.464;30.612;2022-08-20T09:57:38;0.65;;;0.20;;
58978;SDS011;44763;50.464;30.612;2022-08-20T10:00:05;0.95;;;0.50;;
58978;SDS011;44763;50.464;30.612;2022-08-20T10:02:39;0.28;;;0.20;;
58978;SDS011;44763;50.464;30.612;2022-08-20T10:05:06;1.22;;;0.60;;
58978;SDS011;44763;50.464;30.612;2022-08-20T10:07:35;0.20;;;0.20;;
58978;SDS011;44763;50.464;30.612;2022-08-20T10:10:05;0.80;;;0.28;;
58978;SDS011;44763;50.464;30.612;2022-08-20T10:12:36;0.55;;;0.20;;
58978;SDS011;44763;50.464;30.612;2022-08-20T10:15:02;0.20;;;0.20;;
58978;SDS011;44763;50.464;30.612;2022-08-20T10:17:30;0.23;;;0.23;;
58978;SDS011;44763;50.464;30.612;2022-08-20T10:19:56;0.62;;;0.20;;
58978;SDS011;44763;50.464;30.612;2022-08-20T10:22:22;0.57;;;0.17;;
58978;SDS011;44763;50.464;30.612;2022-08-20T10:24:49;2.75;;;0.40;;
58978;SDS011;44763;50.464;30.612;2022-08-20T10:27:15;1.65;;;0.33;;
58978;SDS011;44763;50.464;30.612;2022-08-20T10:29:41;6.33;;;1.05;;
58978;SDS011;44763;50.464;30.612;2022-08-20T10:32:08;0.40;;;0.30;;
58978;SDS011;44763;50.464;30.612;2022-08-20T10:34:39;0.20;;;0.20;;
58978;SDS011;44763;50.464;30.612;2022-08-20T10:37:08;0.35;;;0.20;;
58978;SDS011;44763;50.464;30.612;2022-08-20T10:39:37;0.90;;;0.30;;
58978;SDS011;44763;50.464;30.612;2022-08-20T10:42:03;0.42;;;0.20;;
58978;SDS011;44763;50.464;30.612;2022-08-20T10:44:30;0.28;;;0.20;;
58978;SDS011;44763;50.464;30.612;2022-08-20T10:46:56;0.60;;;0.35;;
58978;SDS011;44763;50.464;30.612;2022-08-20T10:49:22;0.30;;;0.20;;
58978;SDS011;44763;50.464;30.612;2022-08-20T10:51:48;1.98;;;0.45;;
58978;SDS011;44763;50.464;30.612;2022-08-20T10:54:14;1.95;;;0.40;;
58978;SDS011;44763;50.464;30.612;2022-08-20T10:56:41;0.30;;;0.30;;
58978;SDS011;44763;50.464;30.612;2022-08-20T10:59:07;0.30;;;0.20;;
58978;SDS011;44763;50.464;30.612;2022-08-20T11:01:34;0.42;;;0.42;;
58978;SDS011;44763;50.464;30.612;2022-08-20T11:04:00;0.90;;;0.40;;
58978;SDS011;44763;50.464;30.612;2022-08-20T11:06:28;1.05;;;0.55;;
58978;SDS011;44763;50.464;30.612;2022-08-20T11:08:54;0.55;;;0.33;;
58978;SDS011;44763;50.464;30.612;2022-08-20T11:11:24;0.65;;;0.30;;
58978;SDS011;44763;50.464;30.612;2022-08-20T11:13:50;2.50;;;0.30;;
58978;SDS011;44763;50.464;30.612;2022-08-20T11:16:16;0.57;;;0.30;;
58978;SDS011;44763;50.464;30.612;2022-08-20T11:18:43;2.35;;;0.55;;
58978;SDS011;44763;50.464;30.612;2022-08-20T11:21:09;0.30;;;0.30;;
58978;SDS011;44763;50.464;30.612;2022-08-20T11:23:36;0.90;;;0.40;;
58978;SDS011;44763;50.464;30.612;2022-08-20T11:26:02;1.77;;;0.30;;
58978;SDS011;44763;50.464;30.612;2022-08-20T11:28:30;0.33;;;0.30;;
58978;SDS011;44763;50.464;30.612;2022-08-20T11:30:58;1.10;;;0.40;;
58978;SDS011;44763;50.464;30.612;2022-08-20T11:33:26;0.40;;;0.37;;
58978;SDS011;44763;50.464;30.612;2022-08-20T11:35:53;0.60;;;0.60;;
58978;SDS011;44763;50.464;30.612;2022-08-20T11:38:19;0.35;;;0.35;;
58978;SDS011;44763;50.464;30.612;2022-08-20T11:40:46;0.82;;;0.42;;
58978;SDS011;44763;50.464;30.612;2022-08-20T11:43:12;1.20;;;0.40;;
58978;SDS011;44763;50.464;30.612;2022-08-20T11:45:40;1.55;;;0.80;;
58978;SDS011;44763;50.464;30.612;2022-08-20T11:48:06;0.55;;;0.55;;
58978;SDS011;44763;50.464;30.612;2022-08-20T11:50:33;0.98;;;0.60;;
58978;SDS011;44763;50.464;30.612;2022-08-20T11:53:01;1.27;;;0.60;;
58978;SDS011;44763;50.464;30.612;2022-08-20T11:55:27;0.30;;;0.30;;
58978;SDS011;44763;50.464;30.612;2022-08-20T11:57:54;0.40;;;0.40;;
58978;SDS011;44763;50.464;30.612;2022-08-20T12:00:21;1.00;;;0.68;;
58978;SDS011;44763;50.464;30.612;2022-08-20T12:02:49;1.05;;;0.60;;
58978;SDS011;44763;50.464;30.612;2022-08-20T12:05:16;0.33;;;0.33;;
58978;SDS011;44763;50.464;30.612;2022-08-20T12:07:44;1.25;;;0.42;;
58978;SDS011;44763;50.464;30.612;2022-08-20T12:10:11;0.40;;;0.40;;
58978;SDS011;44763;50.464;30.612;2022-08-20T12:12:38;0.50;;;0.50;;
58978;SDS011;44763;50.464;30.612;2022-08-20T12:15:06;0.75;;;0.75;;
58978;SDS011;44763;50.464;30.612;2022-08-20T12:17:34;1.37;;;0.68;;
58978;SDS011;44763;50.464;30.612;2022-08-20T12:20:02;2.25;;;0.57;;
58978;SDS011;44763;50.464;30.612;2022-08-20T12:22:33;0.37;;;0.37;;
58978;SDS011;44763;50.464;30.612;2022-08-20T12:24:59;0.68;;;0.37;;
58978;SDS011;44763;50.464;30.612;2022-08-20T12:27:26;0.90;;;0.90;;
58978;SDS011;44763;50.464;30.612;2022-08-20T12:29:56;0.88;;;0.88;;
58978;SDS011;44763;50.464;30.612;2022-08-20T12:32:26;1.05;;;1.02;;
58978;SDS011;44763;50.464;30.612;2022-08-20T12:34:55;0.95;;;0.95;;
58978;SDS011;44763;50.464;30.612;2022-08-20T12:37:23;0.72;;;0.72;;
58978;SDS011;44763;50.464;30.612;2022-08-20T12:39:54;1.22;;;0.68;;
58978;SDS011;44763;50.464;30.612;2022-08-20T12:42:22;0.47;;;0.47;;
58978;SDS011;44763;50.464;30.612;2022-08-20T12:44:50;0.40;;;0.40;;
58978;SDS011;44763;50.464;30.612;2022-08-20T12:47:24;3.05;;;0.50;;
58978;SDS011;44763;50.464;30.612;2022-08-20T12:50:01;0.68;;;0.50;;
58978;SDS011;44763;50.464;30.612;2022-08-20T12:52:34;1.47;;;0.70;;
58978;SDS011;44763;50.464;30.612;2022-08-20T12:55:04;1.87;;;0.78;;
58978;SDS011;44763;50.464;30.612;2022-08-20T12:57:34;0.55;;;0.50;;
58978;SDS011;44763;50.464;30.612;2022-08-20T13:00:09;1.85;;;1.00;;
58978;SDS011;44763;50.464;30.612;2022-08-20T13:02:47;1.90;;;1.07;;
58978;SDS011;44763;50.464;30.612;2022-08-20T13:05:15;0.75;;;0.75;;
58978;SDS011;44763;50.464;30.612;2022-08-20T13:07:43;1.42;;;1.02;;
58978;SDS011;44763;50.464;30.612;2022-08-20T13:10:18;2.05;;;1.00;;
58978;SDS011;44763;50.464;30.612;2022-08-20T13:12:49;1.30;;;1.20;;
58978;SDS011;44763;50.464;30.612;2022-08-20T13:15:16;1.67;;;0.78;;
58978;SDS011;44763;50.464;30.612;2022-08-20T13:17:43;1.45;;;0.80;;
58978;SDS011;44763;50.464;30.612;2022-08-20T13:20:11;1.90;;;1.25;;
58978;SDS011;44763;50.464;30.612;2022-08-20T13:22:41;0.75;;;0.75;;
58978;SDS011;44763;50.464;30.612;2022-08-20T13:25:08;1.25;;;1.15;;
58978;SDS011;44763;50.464;30.612;2022-08-20T13:27:36;1.05;;;1.05;;
58978;SDS011;44763;50.464;30.612;2022-08-20T13:30:06;1.95;;;0.47;;
58978;SDS011;44763;50.464;30.612;2022-08-20T13:32:37;1.05;;;0.50;;
58978;SDS011;44763;50.464;30.612;2022-08-20T13:35:03;1.10;;;0.98;;
58978;SDS011;44763;50.464;30.612;2022-08-20T13:37:30;1.67;;;1.20;;
58978;SDS011;44763;50.464;30.612;2022-08-20T13:39:58;1.55;;;1.17;;
58978;SDS011;44763;50.464;30.612;2022-08-20T13:42:25;1.20;;;0.60;;
58978;SDS011;44763;50.464;30.612;2022-08-20T13:44:53;2.35;;;0.60;;
58978;SDS011;44763;50.464;30.612;2022-08-20T13:47:28;2.90;;;0.70;;
58978;SDS011;44763;50.464;30.612;2022-08-20T13:52:39;1.25;;;0.70;;
58978;SDS011;44763;50.464;30.612;2022-08-20T13:55:08;0.50;;;0.45;;
58978;SDS011;44763;50.464;30.612;2022-08-20T13:57:36;1.02;;;0.40;;
58978;SDS011;44763;50.464;30.612;2022-08-20T14:00:06;0.85;;;0.60;;
58978;SDS011;44763;50.464;30.612;2022-08-20T14:02:37;2.15;;;0.50;;
58978;SDS011;44763;50.464;30.612;2022-08-20T14:05:05;0.78;;;0.50;;
58978;SDS011;44763;50.464;30.612;2022-08-20T14:07:33;1.95;;;0.60;;
58978;SDS011;44763;50.464;30.612;2022-08-20T14:10:05;0.93;;;0.40;;
58978;SDS011;44763;50.464;30.612;2022-08-20T14:12:35;3.70;;;1.12;;
58978;SDS011;44763;50.464;30.612;2022-08-20T14:15:03;1.85;;;0.70;;
58978;SDS011;44763;50.464;30.612;2022-08-20T14:17:32;1.95;;;0.85;;
58978;SDS011;44763;50.464;30.612;2022-08-20T14:22:36;3.50;;;3.27;;
58978;SDS011;44763;50.464;30.612;2022-08-20T14:25:06;1.50;;;1.45;;
58978;SDS011;44763;50.464;30.612;2022-08-20T14:27:36;0.53;;;0.53;;
58978;SDS011;44763;50.464;30.612;2022-08-20T14:30:06;1.57;;;1.47;;
58978;SDS011;44763;50.464;30.612;2022-08-20T14:32:36;1.12;;;0.95;;
58978;SDS011;44763;50.464;30.612;2022-08-20T14:35:04;2.22;;;0.93;;
58978;SDS011;44763;50.464;30.612;2022-08-20T14:37:35;3.02;;;1.25;;
58978;SDS011;44763;50.464;30.612;2022-08-20T14:40:07;1.57;;;1.47;;
58978;SDS011;44763;50.464;30.612;2022-08-20T14:42:36;6.72;;;5.08;;
58978;SDS011;44763;50.464;30.612;2022-08-20T14:45:04;6.60;;;6.00;;
58978;SDS011;44763;50.464;30.612;2022-08-20T14:47:35;7.95;;;7.30;;
58978;SDS011;44763;50.464;30.612;2022-08-20T14:50:06;7.40;;;6.03;;
58978;SDS011;44763;50.464;30.612;2022-08-20T14:52:42;7.22;;;6.62;;
58978;SDS011;44763;50.464;30.612;2022-08-20T14:55:10;7.03;;;6.47;;
58978;SDS011;44763;50.464;30.612;2022-08-20T14:57:41;12.90;;;7.55;;
58978;SDS011;44763;50.464;30.612;2022-08-20T15:00:09;7.65;;;7.05;;
58978;SDS011;44763;50.464;30.612;2022-08-20T15:02:41;10.43;;;7.47;;
58978;SDS011;44763;50.464;30.612;2022-08-20T15:05:07;8.60;;;7.80;;
58978;SDS011;44763;50.464;30.612;2022-08-20T15:07:35;8.35;;;7.33;;